Ammán, Jordan

3:39 PM EET en Noviembre 21, 2017 (GMT +0200)
Demashk | | Change Station

Alt 2847 ft 31.94 °N, 35.90 °E | Updated 1 minute ago

Lluvia
Lluvia
50.4 ° F
Sensación térmica 50.4 ° F
N
4.3
Viento Variable Viento desde ONO
Gusts 14.3 mph

Hoy
Alta -- | Baja -- ° F
--% Posibilidad de precipitaciones
Ayer
Alta -- | Baja -- ° F
Precip. -- pul
Presión 29.92 pul
Visibilidad 3.1 Millas
Nubes Nubes dispersas 1800 ft
Muy nublado 2000 ft
Punto de rocío 50 ° F
Humedad 97%
Precipitaciones 0.31 pul
Espesor de la nieve No disponible.
6:10 AM 4:33 PM
Creciente, 8% visible
SPECI OJAI 211330Z 27014KT 5000 BR SCT018 BKN020 13/11 Q1013 NOSIG
Presión 29.92 pul
Visibilidad 3.1 Millas
Nubes Nubes dispersas 1800 ft
Muy nublado 2000 ft
Punto de rocío 50 ° F
Humedad 97%
Precipitaciones 0.31 pul
Espesor de la nieve No disponible.
6:10 AM 4:33 PM
Creciente, 8% visible
SPECI OJAI 211330Z 27014KT 5000 BR SCT018 BKN020 13/11 Q1013 NOSIG

Get Severe Weather Alerts

Thanks for signing up!

Be on the lookout for a verification email in your inbox.

You'll start receiving the daily forecast at 6 AM.

×

10-Day Weather Forecast

No radar image for this location.
×

Almanac

Astronomía

Nov. 21, 2017 Salida Puesta
Hora real
Crepúsculo civil
Crepúsculo náutico
Crepúsculo astronómico
Luna
Horas de luz
Horas de luz
Tomorrow will be .
, % of the Moon is Illuminated

Extremos de hoy

Máximos del país Bajas del país

Community

WunderPhotos

Category 6

Welcome to Category 6. This is the collective home for Weather Underground's featured writeups by Dr. Jeff Masters (right), Bob Henson (left), Chris Burt, and other regular contributors.

Nearby

Calidad del aire

  Calidad del aire Índice AQ Contaminante
Not available.

Grosos de nieve

Estación Profundido Altura

Actividad de terremotos

Ciudad Distance Mag. Tiempo y dato
Magnitud mínima muestra es 2,5.

Temperaturas de aguas costeras

Lugar Temperatura

Stations

Estaciones meteorológicas cercanas

Ubicación de la estación Temp. Vientos helados Punto de rocío Humedad Viento Precip. Alt Actualizado Tipo